San Juan Enterprise — WDD9563 — position and weather

sailwx.info

Track history (hours):
 
Tides and Currents Weather Stations Pressure Air Temp Water Temp Dewpoint Dewpoint Depression Visibility Wind Speed Wind Dir Waves Ship Positions

San Juan Enterprise

Owner: SAN JUAN MARINE FREIGHT CO LLC, ANACORTES, WA. More information available from US FCC via Universal Licensing System and Coast Guard Vessel Documentation Center.

Last reported at 2016-Jul-25 03:31 UTC. Time now 2016-Jul-25 04:24 UTC.
Position N 48°31' W 122°36'.

Length 30 m.

MMSI: 367313160.

Date/timePositionNaut miles runAvg speedWind from/ knotsBaromVisibWave heightAir tempDewpointWater temp
2016-Jul-25 03:31N 48°31' W 122°36'0 0.0
2016-Jul-25 02:31N 48°31' W 122°36'0 0.0
2016-Jul-25 01:31N 48°31' W 122°36'0 0.0
2016-Jul-25 00:31N 48°31' W 122°36'0 0.0
2016-Jul-24 23:31N 48°31' W 122°36'0 0.0
2016-Jul-24 22:31N 48°31' W 122°36'0 0.0
2016-Jul-24 21:31N 48°31' W 122°36'0 0.0
2016-Jul-24 20:31N 48°31' W 122°36'0 0.0
2016-Jul-24 18:25N 48°31' W 122°36'0 0.0
2016-Jul-24 17:31N 48°31' W 122°36'0 0.0
2016-Jul-24 16:25N 48°31' W 122°36'0 0.0
2016-Jul-24 15:25N 48°31' W 122°36'0 0.0
2016-Jul-24 14:31N 48°31' W 122°36'0 0.0
2016-Jul-24 13:31N 48°31' W 122°36'0 0.0
2016-Jul-24 12:31N 48°31' W 122°36'0 0.0
2016-Jul-24 11:31N 48°31' W 122°36'0 0.0
2016-Jul-24 10:31N 48°31' W 122°36'0 0.0
2016-Jul-24 09:31N 48°31' W 122°36'0 0.0
2016-Jul-24 08:31N 48°31' W 122°36'0 0.0
2016-Jul-24 07:31N 48°31' W 122°36'0 0.0
2016-Jul-24 06:31N 48°31' W 122°36'0 0.0
2016-Jul-24 05:31N 48°31' W 122°36'0 0.0
2016-Jul-24 04:31N 48°31' W 122°36'0 0.0
2016-Jul-24 03:19N 48°31' W 122°36'0 0.0
2016-Jul-24 02:25N 48°31' W 122°36'0 0.0
2016-Jul-24 01:31N 48°31' W 122°36'0 0.0
2016-Jul-24 00:16N 48°31' W 122°36'0 0.0
2016-Jul-23 23:31N 48°31' W 122°36'0 0.0
2016-Jul-23 22:31N 48°31' W 122°36'0 0.0
2016-Jul-23 21:31N 48°31' W 122°36'0 0.0
2016-Jul-23 20:31N 48°31' W 122°36'0 0.0
2016-Jul-23 19:31N 48°31' W 122°36'0 0.0
2016-Jul-23 18:31N 48°31' W 122°36'0 0.0
2016-Jul-23 17:31N 48°31' W 122°36'0 0.0
2016-Jul-23 16:31N 48°31' W 122°36'0 0.0
2016-Jul-23 15:31N 48°31' W 122°36'0 0.0
2016-Jul-23 14:31N 48°31' W 122°36'0 0.0
2016-Jul-23 13:31N 48°31' W 122°36'0 0.0
2016-Jul-23 12:19N 48°31' W 122°36'0 0.0
2016-Jul-23 11:31N 48°31' W 122°36'0 0.0
2016-Jul-23 10:31N 48°31' W 122°36'0 0.0
2016-Jul-23 09:31N 48°31' W 122°36'0 0.0
2016-Jul-23 08:31N 48°31' W 122°36'0 0.0
2016-Jul-23 07:31N 48°31' W 122°36'0 0.0
2016-Jul-23 06:19N 48°31' W 122°36'0 0.0
2016-Jul-23 04:31N 48°31' W 122°36'0 0.0
2016-Jul-23 03:31N 48°31' W 122°36'0 0.0
2016-Jul-23 02:31N 48°31' W 122°36'0 0.0
2016-Jul-23 01:31N 48°31' W 122°36'0 0.0
2016-Jul-23 00:31N 48°31' W 122°36'0 0.0
2016-Jul-22 23:33N 48°31' W 122°36'0 0.4
2016-Jul-22 22:33N 48°31' W 122°37'4 4.5
2016-Jul-22 21:33N 48°28' W 122°41'6 5.9
2016-Jul-22 20:33N 48°24' W 122°34'5 2.4
2016-Jul-22 18:33N 48°25' W 122°41'7 6.0
2016-Jul-22 17:28N 48°31' W 122°37'0 0.0
2016-Jul-22 16:31N 48°31' W 122°37'0 0.3
2016-Jul-22 15:30N 48°31' W 122°36'0 0.0
2016-Jul-22 14:30N 48°31' W 122°36'0 0.0
2016-Jul-22 13:30N 48°31' W 122°36'0 0.0
2016-Jul-22 12:30N 48°31' W 122°36'0 0.0
2016-Jul-22 11:30N 48°31' W 122°36'0 0.0
2016-Jul-22 10:30N 48°31' W 122°36'0 0.0
2016-Jul-22 09:30N 48°31' W 122°36'0 0.0
2016-Jul-22 08:30N 48°31' W 122°36'0 0.0
2016-Jul-22 07:30N 48°31' W 122°36'0 0.0
2016-Jul-22 04:30N 48°31' W 122°36'0 0.0
2016-Jul-22 03:30N 48°31' W 122°36'0 0.0
2016-Jul-22 02:24N 48°31' W 122°36'0 0.0
2016-Jul-22 01:30N 48°31' W 122°36'0 0.0
2016-Jul-22 00:30N 48°31' W 122°36'0 0.0
2016-Jul-21 23:30N 48°31' W 122°36'0 0.0
2016-Jul-21 22:30N 48°31' W 122°36'0 0.0
2016-Jul-21 21:24N 48°31' W 122°36'3 3.1
2016-Jul-21 20:34N 48°32' W 122°40'8 8.3
2016-Jul-21 19:33N 48°34' W 122°52'6 5.7
2016-Jul-21 18:33N 48°32' W 122°60'0 0.0
2016-Jul-21 17:34N 48°32' W 122°60'6 5.8
2016-Jul-21 16:33N 48°34' W 122°52'8 7.9
2016-Jul-21 15:34N 48°32' W 122°40'3 2.5
2016-Jul-21 14:30N 48°31' W 122°36'0 0.0
2016-Jul-21 13:30N 48°31' W 122°36'0 0.0
2016-Jul-21 12:30N 48°31' W 122°36'0 0.0
2016-Jul-21 11:30N 48°31' W 122°36'0 0.0
2016-Jul-21 10:30N 48°31' W 122°36'0 0.0
2016-Jul-21 09:30N 48°31' W 122°36'0 0.0
2016-Jul-21 08:30N 48°31' W 122°36'0 0.0
2016-Jul-21 07:30N 48°31' W 122°36'0 0.0
2016-Jul-21 06:30N 48°31' W 122°36'0 0.0
2016-Jul-21 05:30N 48°31' W 122°36'0 0.0
2016-Jul-21 04:30N 48°31' W 122°36'0 0.0
2016-Jul-21 03:30N 48°31' W 122°36'0 0.0
2016-Jul-21 02:30N 48°31' W 122°36'0 0.0
2016-Jul-21 01:18N 48°31' W 122°36'0 0.0
2016-Jul-21 00:30N 48°31' W 122°36'0 0.0
2016-Jul-20 23:30N 48°31' W 122°36'0 0.0
2016-Jul-20 22:30N 48°31' W 122°36'0 0.0
2016-Jul-20 21:30N 48°31' W 122°36'0 0.0
2016-Jul-20 20:30N 48°31' W 122°36'0 0.0
2016-Jul-20 19:30N 48°31' W 122°36'0 0.0
2016-Jul-20 18:18N 48°31' W 122°36'0 0.0
2016-Jul-20 17:30N 48°31' W 122°36'0 0.0
2016-Jul-20 16:30N 48°31' W 122°36'0 0.0
2016-Jul-20 15:30N 48°31' W 122°36'0 0.0
2016-Jul-20 14:30N 48°31' W 122°36'0 0.0
2016-Jul-20 13:30N 48°31' W 122°36'0 0.0
2016-Jul-20 12:30N 48°31' W 122°36'0 0.0
2016-Jul-20 11:30N 48°31' W 122°36'0 0.0
2016-Jul-20 10:30N 48°31' W 122°36'0 0.0
2016-Jul-20 09:30N 48°31' W 122°36'0 0.0
2016-Jul-20 08:24N 48°31' W 122°36'0 0.0
2016-Jul-20 07:30N 48°31' W 122°36'0 0.0
2016-Jul-20 06:30N 48°31' W 122°36'0 0.0
2016-Jul-20 05:30N 48°31' W 122°36'0 0.0
2016-Jul-20 04:30N 48°31' W 122°36'0 0.0
2016-Jul-20 03:30N 48°31' W 122°36'0 0.0
2016-Jul-20 02:24N 48°31' W 122°36'0 0.0
2016-Jul-20 01:24N 48°31' W 122°36'0 0.0
2016-Jul-20 00:33N 48°31' W 122°36'1 0.6
2016-Jul-19 23:33N 48°31' W 122°36'8 7.6
2016-Jul-19 22:33N 48°34' W 122°47'1 0.6
2016-Jul-19 21:33N 48°35' W 122°47'4 4.1
2016-Jul-19 20:33N 48°33' W 122°41'0 0.0
2016-Jul-19 19:33N 48°33' W 122°41'0 0.5
2016-Jul-19 18:33N 48°33' W 122°41'3 2.9
2016-Jul-19 17:33N 48°31' W 122°37'0 0.0
2016-Jul-19 16:33N 48°31' W 122°37'0 0.0
2016-Jul-19 15:33N 48°31' W 122°37'0 0.4
2016-Jul-19 14:33N 48°31' W 122°36'0 0.0
2016-Jul-19 13:33N 48°31' W 122°36'0 0.0
2016-Jul-19 12:33N 48°31' W 122°36'0 0.0
2016-Jul-19 11:33N 48°31' W 122°36'0 0.0
2016-Jul-19 10:33N 48°31' W 122°36'0 0.0
2016-Jul-19 09:33N 48°31' W 122°36'0 0.0
2016-Jul-19 08:33N 48°31' W 122°36'0 0.0
2016-Jul-19 07:33N 48°31' W 122°36'0 0.0
2016-Jul-19 04:33N 48°31' W 122°36'0 0.0
2016-Jul-19 03:33N 48°31' W 122°36'0 0.0
2016-Jul-19 02:33N 48°31' W 122°36'0 0.0
2016-Jul-19 01:33N 48°31' W 122°36'0 0.0
2016-Jul-19 00:33N 48°31' W 122°36'0 0.0
2016-Jul-18 23:33N 48°31' W 122°36'0 0.0
2016-Jul-18 22:33N 48°31' W 122°36'0 0.0
2016-Jul-18 21:33N 48°31' W 122°36'0 0.0
2016-Jul-18 20:33N 48°31' W 122°36'0 0.0
2016-Jul-18 19:33N 48°31' W 122°36'0 0.0
2016-Jul-18 18:33N 48°31' W 122°36'0 0.0
2016-Jul-18 17:33N 48°31' W 122°36'0 0.0
2016-Jul-18 16:33N 48°31' W 122°36'0 0.0
2016-Jul-18 15:33N 48°31' W 122°36'0 0.0
2016-Jul-18 14:33N 48°31' W 122°36'0 0.0
2016-Jul-18 13:33N 48°31' W 122°36'0 0.0
2016-Jul-18 12:33N 48°31' W 122°36'0 0.0
2016-Jul-18 11:33N 48°31' W 122°36'0 0.0
2016-Jul-18 10:33N 48°31' W 122°36'0 0.0
2016-Jul-18 09:33N 48°31' W 122°36'0 0.0
2016-Jul-18 08:33N 48°31' W 122°36'0 0.0
2016-Jul-18 07:33N 48°31' W 122°36'0 0.0
2016-Jul-18 06:33N 48°31' W 122°36'0 0.0
2016-Jul-18 05:33N 48°31' W 122°36'0 0.0
2016-Jul-18 04:33N 48°31' W 122°36'0 0.0
2016-Jul-18 03:33N 48°31' W 122°36'0 0.0
2016-Jul-18 02:33N 48°31' W 122°36'0 0.0
2016-Jul-18 01:33N 48°31' W 122°36'0 0.0
2016-Jul-18 00:33N 48°31' W 122°36'0 0.0
2016-Jul-17 23:33N 48°31' W 122°36'0 0.0
2016-Jul-17 22:33N 48°31' W 122°36'0 0.0
2016-Jul-17 21:33N 48°31' W 122°36'0 0.0
2016-Jul-17 20:33N 48°31' W 122°36'0 0.0
2016-Jul-17 19:33N 48°31' W 122°36'0 0.0
2016-Jul-17 18:33N 48°31' W 122°36'0 0.0
2016-Jul-17 17:33N 48°31' W 122°36'0 0.0
2016-Jul-17 16:33N 48°31' W 122°36'0 0.0
2016-Jul-17 15:33N 48°31' W 122°36'0 0.0
2016-Jul-17 14:33N 48°31' W 122°36'0 0.0
2016-Jul-17 13:33N 48°31' W 122°36'0 0.0
2016-Jul-17 12:33N 48°31' W 122°36'0 0.0
2016-Jul-17 11:33N 48°31' W 122°36'0 0.0
2016-Jul-17 10:33N 48°31' W 122°36'0 0.0
2016-Jul-17 09:33N 48°31' W 122°36'0 0.0
2016-Jul-17 08:33N 48°31' W 122°36'0 0.0
2016-Jul-17 07:33N 48°31' W 122°36'0 0.0
2016-Jul-17 06:33N 48°31' W 122°36'0 0.0
2016-Jul-17 04:33N 48°31' W 122°36'0 0.0
2016-Jul-17 03:33N 48°31' W 122°36'0 0.0
2016-Jul-17 02:33N 48°31' W 122°36'0 0.0
2016-Jul-17 01:33N 48°31' W 122°36'0 0.0
2016-Jul-17 00:33N 48°31' W 122°36'0 0.0
2016-Jul-16 23:33N 48°31' W 122°36'0 0.0
2016-Jul-16 22:33N 48°31' W 122°36'0 0.0
2016-Jul-16 21:33N 48°31' W 122°36'0 0.0
2016-Jul-16 20:33N 48°31' W 122°36'0 0.0
2016-Jul-16 19:33N 48°31' W 122°36'0 0.0
2016-Jul-16 18:33N 48°31' W 122°36'0 0.0
2016-Jul-16 17:33N 48°31' W 122°36'0 0.0
2016-Jul-16 16:33N 48°31' W 122°36'0 0.0
2016-Jul-16 15:33N 48°31' W 122°36'0 0.0
2016-Jul-16 14:33N 48°31' W 122°36'0 0.0
2016-Jul-16 13:33N 48°31' W 122°36'0 0.0
2016-Jul-16 12:33N 48°31' W 122°36'0 0.0
2016-Jul-16 11:33N 48°31' W 122°36'0 0.0
2016-Jul-16 10:33N 48°31' W 122°36'0 0.0
2016-Jul-16 09:33N 48°31' W 122°36'0 0.0
2016-Jul-16 08:33N 48°31' W 122°36'0 0.0
2016-Jul-16 07:33N 48°31' W 122°36'0 0.0
2016-Jul-16 06:33N 48°31' W 122°36'0 0.0
2016-Jul-16 04:33N 48°31' W 122°36'0 0.0
2016-Jul-16 03:33N 48°31' W 122°36'0 0.0
2016-Jul-16 02:33N 48°31' W 122°36'0 0.0
2016-Jul-16 01:33N 48°31' W 122°36'0 0.0
2016-Jul-16 00:33N 48°31' W 122°36'0 0.0
2016-Jul-15 23:33N 48°31' W 122°36'0 0.0
2016-Jul-15 22:33N 48°31' W 122°36'0 0.0
2016-Jul-15 21:33N 48°31' W 122°36'0 0.0
2016-Jul-15 20:33N 48°31' W 122°36'0 0.0
2016-Jul-15 19:33N 48°31' W 122°36'1 1.0
2016-Jul-15 18:33N 48°31' W 122°38'8 8.1
2016-Jul-15 17:32N 48°35' W 122°49'1 1.1
2016-Jul-15 16:33N 48°36' W 122°49'8 7.5
2016-Jul-15 15:33N 48°32' W 122°40'2 2.4
2016-Jul-15 14:33N 48°31' W 122°36'0 0.0
2016-Jul-15 13:33N 48°31' W 122°36'0 0.0
2016-Jul-15 12:33N 48°31' W 122°36'0 0.0
2016-Jul-15 11:33N 48°31' W 122°36'0 0.0
2016-Jul-15 10:33N 48°31' W 122°36'0 0.0
2016-Jul-15 09:33N 48°31' W 122°36'0 0.0
2016-Jul-15 08:33N 48°31' W 122°36'0 0.0
2016-Jul-15 07:33N 48°31' W 122°36'0 0.0
2016-Jul-15 06:33N 48°31' W 122°36'0 0.0
2016-Jul-15 05:33N 48°31' W 122°36'0 0.0
2016-Jul-15 04:33N 48°31' W 122°36'0 0.0
2016-Jul-15 03:33N 48°31' W 122°36'  
Track history (hours):
 
Tides and Currents Weather Stations Pressure Air Temp Water Temp Dewpoint Dewpoint Depression Visibility Wind Speed Wind Dir Waves Ship Positions

San Juan Enterprise

Owner: SAN JUAN MARINE FREIGHT CO LLC, ANACORTES, WA. More information available from US FCC via Universal Licensing System and Coast Guard Vessel Documentation Center.

Last reported at 2016-Jul-25 03:31 UTC. Time now 2016-Jul-25 04:24 UTC.
Position N 48°31' W 122°36'.

Length 30 m.

MMSI: 367313160.

Date/timePositionNaut miles runAvg speedWind from/ knotsBaromVisibWave heightAir tempDewpointWater temp
2016-Jul-25 03:31N 48°31' W 122°36'0 0.0
2016-Jul-25 02:31N 48°31' W 122°36'0 0.0
2016-Jul-25 01:31N 48°31' W 122°36'0 0.0
2016-Jul-25 00:31N 48°31' W 122°36'0 0.0
2016-Jul-24 23:31N 48°31' W 122°36'0 0.0
2016-Jul-24 22:31N 48°31' W 122°36'0 0.0
2016-Jul-24 21:31N 48°31' W 122°36'0 0.0
2016-Jul-24 20:31N 48°31' W 122°36'0 0.0
2016-Jul-24 18:25N 48°31' W 122°36'0 0.0
2016-Jul-24 17:31N 48°31' W 122°36'0 0.0
2016-Jul-24 16:25N 48°31' W 122°36'0 0.0
2016-Jul-24 15:25N 48°31' W 122°36'0 0.0
2016-Jul-24 14:31N 48°31' W 122°36'0 0.0
2016-Jul-24 13:31N 48°31' W 122°36'0 0.0
2016-Jul-24 12:31N 48°31' W 122°36'0 0.0
2016-Jul-24 11:31N 48°31' W 122°36'0 0.0
2016-Jul-24 10:31N 48°31' W 122°36'0 0.0
2016-Jul-24 09:31N 48°31' W 122°36'0 0.0
2016-Jul-24 08:31N 48°31' W 122°36'0 0.0
2016-Jul-24 07:31N 48°31' W 122°36'0 0.0
2016-Jul-24 06:31N 48°31' W 122°36'0 0.0
2016-Jul-24 05:31N 48°31' W 122°36'0 0.0
2016-Jul-24 04:31N 48°31' W 122°36'0 0.0
2016-Jul-24 03:19N 48°31' W 122°36'0 0.0
2016-Jul-24 02:25N 48°31' W 122°36'0 0.0
2016-Jul-24 01:31N 48°31' W 122°36'0 0.0
2016-Jul-24 00:16N 48°31' W 122°36'0 0.0
2016-Jul-23 23:31N 48°31' W 122°36'0 0.0
2016-Jul-23 22:31N 48°31' W 122°36'0 0.0
2016-Jul-23 21:31N 48°31' W 122°36'0 0.0
2016-Jul-23 20:31N 48°31' W 122°36'0 0.0
2016-Jul-23 19:31N 48°31' W 122°36'0 0.0
2016-Jul-23 18:31N 48°31' W 122°36'0 0.0
2016-Jul-23 17:31N 48°31' W 122°36'0 0.0
2016-Jul-23 16:31N 48°31' W 122°36'0 0.0
2016-Jul-23 15:31N 48°31' W 122°36'0 0.0
2016-Jul-23 14:31N 48°31' W 122°36'0 0.0
2016-Jul-23 13:31N 48°31' W 122°36'0 0.0
2016-Jul-23 12:19N 48°31' W 122°36'0 0.0
2016-Jul-23 11:31N 48°31' W 122°36'0 0.0
2016-Jul-23 10:31N 48°31' W 122°36'0 0.0
2016-Jul-23 09:31N 48°31' W 122°36'0 0.0
2016-Jul-23 08:31N 48°31' W 122°36'0 0.0
2016-Jul-23 07:31N 48°31' W 122°36'0 0.0
2016-Jul-23 06:19N 48°31' W 122°36'0 0.0
2016-Jul-23 04:31N 48°31' W 122°36'0 0.0
2016-Jul-23 03:31N 48°31' W 122°36'0 0.0
2016-Jul-23 02:31N 48°31' W 122°36'0 0.0
2016-Jul-23 01:31N 48°31' W 122°36'0 0.0
2016-Jul-23 00:31N 48°31' W 122°36'0 0.0
2016-Jul-22 23:33N 48°31' W 122°36'0 0.4
2016-Jul-22 22:33N 48°31' W 122°37'4 4.5
2016-Jul-22 21:33N 48°28' W 122°41'6 5.9
2016-Jul-22 20:33N 48°24' W 122°34'5 2.4
2016-Jul-22 18:33N 48°25' W 122°41'7 6.0
2016-Jul-22 17:28N 48°31' W 122°37'0 0.0
2016-Jul-22 16:31N 48°31' W 122°37'0 0.3
2016-Jul-22 15:30N 48°31' W 122°36'0 0.0
2016-Jul-22 14:30N 48°31' W 122°36'0 0.0
2016-Jul-22 13:30N 48°31' W 122°36'0 0.0
2016-Jul-22 12:30N 48°31' W 122°36'0 0.0
2016-Jul-22 11:30N 48°31' W 122°36'0 0.0
2016-Jul-22 10:30N 48°31' W 122°36'0 0.0
2016-Jul-22 09:30N 48°31' W 122°36'0 0.0
2016-Jul-22 08:30N 48°31' W 122°36'0 0.0
2016-Jul-22 07:30N 48°31' W 122°36'0 0.0
2016-Jul-22 04:30N 48°31' W 122°36'0 0.0
2016-Jul-22 03:30N 48°31' W 122°36'0 0.0
2016-Jul-22 02:24N 48°31' W 122°36'0 0.0
2016-Jul-22 01:30N 48°31' W 122°36'0 0.0
2016-Jul-22 00:30N 48°31' W 122°36'0 0.0
2016-Jul-21 23:30N 48°31' W 122°36'0 0.0
2016-Jul-21 22:30N 48°31' W 122°36'0 0.0
2016-Jul-21 21:24N 48°31' W 122°36'3 3.1
2016-Jul-21 20:34N 48°32' W 122°40'8 8.3
2016-Jul-21 19:33N 48°34' W 122°52'6 5.7
2016-Jul-21 18:33N 48°32' W 122°60'0 0.0
2016-Jul-21 17:34N 48°32' W 122°60'6 5.8
2016-Jul-21 16:33N 48°34' W 122°52'8 7.9
2016-Jul-21 15:34N 48°32' W 122°40'3 2.5
2016-Jul-21 14:30N 48°31' W 122°36'0 0.0
2016-Jul-21 13:30N 48°31' W 122°36'0 0.0
2016-Jul-21 12:30N 48°31' W 122°36'0 0.0
2016-Jul-21 11:30N 48°31' W 122°36'0 0.0
2016-Jul-21 10:30N 48°31' W 122°36'0 0.0
2016-Jul-21 09:30N 48°31' W 122°36'0 0.0
2016-Jul-21 08:30N 48°31' W 122°36'0 0.0
2016-Jul-21 07:30N 48°31' W 122°36'0 0.0
2016-Jul-21 06:30N 48°31' W 122°36'0 0.0
2016-Jul-21 05:30N 48°31' W 122°36'0 0.0
2016-Jul-21 04:30N 48°31' W 122°36'0 0.0
2016-Jul-21 03:30N 48°31' W 122°36'0 0.0
2016-Jul-21 02:30N 48°31' W 122°36'0 0.0
2016-Jul-21 01:18N 48°31' W 122°36'0 0.0
2016-Jul-21 00:30N 48°31' W 122°36'0 0.0
2016-Jul-20 23:30N 48°31' W 122°36'0 0.0
2016-Jul-20 22:30N 48°31' W 122°36'0 0.0
2016-Jul-20 21:30N 48°31' W 122°36'0 0.0
2016-Jul-20 20:30N 48°31' W 122°36'0 0.0
2016-Jul-20 19:30N 48°31' W 122°36'0 0.0
2016-Jul-20 18:18N 48°31' W 122°36'0 0.0
2016-Jul-20 17:30N 48°31' W 122°36'0 0.0
2016-Jul-20 16:30N 48°31' W 122°36'0 0.0
2016-Jul-20 15:30N 48°31' W 122°36'0 0.0
2016-Jul-20 14:30N 48°31' W 122°36'0 0.0
2016-Jul-20 13:30N 48°31' W 122°36'0 0.0
2016-Jul-20 12:30N 48°31' W 122°36'0 0.0
2016-Jul-20 11:30N 48°31' W 122°36'0 0.0
2016-Jul-20 10:30N 48°31' W 122°36'0 0.0
2016-Jul-20 09:30N 48°31' W 122°36'0 0.0
2016-Jul-20 08:24N 48°31' W 122°36'0 0.0
2016-Jul-20 07:30N 48°31' W 122°36'0 0.0
2016-Jul-20 06:30N 48°31' W 122°36'0 0.0
2016-Jul-20 05:30N 48°31' W 122°36'0 0.0
2016-Jul-20 04:30N 48°31' W 122°36'0 0.0
2016-Jul-20 03:30N 48°31' W 122°36'0 0.0
2016-Jul-20 02:24N 48°31' W 122°36'0 0.0
2016-Jul-20 01:24N 48°31' W 122°36'0 0.0
2016-Jul-20 00:33N 48°31' W 122°36'1 0.6
2016-Jul-19 23:33N 48°31' W 122°36'8 7.6
2016-Jul-19 22:33N 48°34' W 122°47'1 0.6
2016-Jul-19 21:33N 48°35' W 122°47'4 4.1
2016-Jul-19 20:33N 48°33' W 122°41'0 0.0
2016-Jul-19 19:33N 48°33' W 122°41'0 0.5
2016-Jul-19 18:33N 48°33' W 122°41'3 2.9
2016-Jul-19 17:33N 48°31' W 122°37'0 0.0
2016-Jul-19 16:33N 48°31' W 122°37'0 0.0
2016-Jul-19 15:33N 48°31' W 122°37'0 0.4
2016-Jul-19 14:33N 48°31' W 122°36'0 0.0
2016-Jul-19 13:33N 48°31' W 122°36'0 0.0
2016-Jul-19 12:33N 48°31' W 122°36'0 0.0
2016-Jul-19 11:33N 48°31' W 122°36'0 0.0
2016-Jul-19 10:33N 48°31' W 122°36'0 0.0
2016-Jul-19 09:33N 48°31' W 122°36'0 0.0
2016-Jul-19 08:33N 48°31' W 122°36'0 0.0
2016-Jul-19 07:33N 48°31' W 122°36'0 0.0
2016-Jul-19 04:33N 48°31' W 122°36'0 0.0
2016-Jul-19 03:33N 48°31' W 122°36'0 0.0
2016-Jul-19 02:33N 48°31' W 122°36'0 0.0
2016-Jul-19 01:33N 48°31' W 122°36'0 0.0
2016-Jul-19 00:33N 48°31' W 122°36'0 0.0
2016-Jul-18 23:33N 48°31' W 122°36'0 0.0
2016-Jul-18 22:33N 48°31' W 122°36'0 0.0
2016-Jul-18 21:33N 48°31' W 122°36'0 0.0
2016-Jul-18 20:33N 48°31' W 122°36'0 0.0
2016-Jul-18 19:33N 48°31' W 122°36'0 0.0
2016-Jul-18 18:33N 48°31' W 122°36'0 0.0
2016-Jul-18 17:33N 48°31' W 122°36'0 0.0
2016-Jul-18 16:33N 48°31' W 122°36'0 0.0
2016-Jul-18 15:33N 48°31' W 122°36'0 0.0
2016-Jul-18 14:33N 48°31' W 122°36'0 0.0
2016-Jul-18 13:33N 48°31' W 122°36'0 0.0
2016-Jul-18 12:33N 48°31' W 122°36'0 0.0
2016-Jul-18 11:33N 48°31' W 122°36'0 0.0
2016-Jul-18 10:33N 48°31' W 122°36'0 0.0
2016-Jul-18 09:33N 48°31' W 122°36'0 0.0
2016-Jul-18 08:33N 48°31' W 122°36'0 0.0
2016-Jul-18 07:33N 48°31' W 122°36'0 0.0
2016-Jul-18 06:33N 48°31' W 122°36'0 0.0
2016-Jul-18 05:33N 48°31' W 122°36'0 0.0
2016-Jul-18 04:33N 48°31' W 122°36'0 0.0
2016-Jul-18 03:33N 48°31' W 122°36'0 0.0
2016-Jul-18 02:33N 48°31' W 122°36'0 0.0
2016-Jul-18 01:33N 48°31' W 122°36'0 0.0
2016-Jul-18 00:33N 48°31' W 122°36'0 0.0
2016-Jul-17 23:33N 48°31' W 122°36'0 0.0
2016-Jul-17 22:33N 48°31' W 122°36'0 0.0
2016-Jul-17 21:33N 48°31' W 122°36'0 0.0
2016-Jul-17 20:33N 48°31' W 122°36'0 0.0
2016-Jul-17 19:33N 48°31' W 122°36'0 0.0
2016-Jul-17 18:33N 48°31' W 122°36'0 0.0
2016-Jul-17 17:33N 48°31' W 122°36'0 0.0
2016-Jul-17 16:33N 48°31' W 122°36'0 0.0
2016-Jul-17 15:33N 48°31' W 122°36'0 0.0
2016-Jul-17 14:33N 48°31' W 122°36'0 0.0
2016-Jul-17 13:33N 48°31' W 122°36'0 0.0
2016-Jul-17 12:33N 48°31' W 122°36'0 0.0
2016-Jul-17 11:33N 48°31' W 122°36'0 0.0
2016-Jul-17 10:33N 48°31' W 122°36'0 0.0
2016-Jul-17 09:33N 48°31' W 122°36'0 0.0
2016-Jul-17 08:33N 48°31' W 122°36'0 0.0
2016-Jul-17 07:33N 48°31' W 122°36'0 0.0
2016-Jul-17 06:33N 48°31' W 122°36'0 0.0
2016-Jul-17 04:33N 48°31' W 122°36'0 0.0
2016-Jul-17 03:33N 48°31' W 122°36'0 0.0
2016-Jul-17 02:33N 48°31' W 122°36'0 0.0
2016-Jul-17 01:33N 48°31' W 122°36'0 0.0
2016-Jul-17 00:33N 48°31' W 122°36'0 0.0
2016-Jul-16 23:33N 48°31' W 122°36'0 0.0
2016-Jul-16 22:33N 48°31' W 122°36'0 0.0
2016-Jul-16 21:33N 48°31' W 122°36'0 0.0
2016-Jul-16 20:33N 48°31' W 122°36'0 0.0
2016-Jul-16 19:33N 48°31' W 122°36'0 0.0
2016-Jul-16 18:33N 48°31' W 122°36'0 0.0
2016-Jul-16 17:33N 48°31' W 122°36'0 0.0
2016-Jul-16 16:33N 48°31' W 122°36'0 0.0
2016-Jul-16 15:33N 48°31' W 122°36'0 0.0
2016-Jul-16 14:33N 48°31' W 122°36'0 0.0
2016-Jul-16 13:33N 48°31' W 122°36'0 0.0
2016-Jul-16 12:33N 48°31' W 122°36'0 0.0
2016-Jul-16 11:33N 48°31' W 122°36'0 0.0
2016-Jul-16 10:33N 48°31' W 122°36'0 0.0
2016-Jul-16 09:33N 48°31' W 122°36'0 0.0
2016-Jul-16 08:33N 48°31' W 122°36'0 0.0
2016-Jul-16 07:33N 48°31' W 122°36'0 0.0
2016-Jul-16 06:33N 48°31' W 122°36'0 0.0
2016-Jul-16 04:33N 48°31' W 122°36'0 0.0
2016-Jul-16 03:33N 48°31' W 122°36'0 0.0
2016-Jul-16 02:33N 48°31' W 122°36'0 0.0
2016-Jul-16 01:33N 48°31' W 122°36'0 0.0
2016-Jul-16 00:33N 48°31' W 122°36'0 0.0
2016-Jul-15 23:33N 48°31' W 122°36'0 0.0
2016-Jul-15 22:33N 48°31' W 122°36'0 0.0
2016-Jul-15 21:33N 48°31' W 122°36'0 0.0
2016-Jul-15 20:33N 48°31' W 122°36'0 0.0
2016-Jul-15 19:33N 48°31' W 122°36'1 1.0
2016-Jul-15 18:33N 48°31' W 122°38'8 8.1
2016-Jul-15 17:32N 48°35' W 122°49'1 1.1
2016-Jul-15 16:33N 48°36' W 122°49'8 7.5
2016-Jul-15 15:33N 48°32' W 122°40'2 2.4
2016-Jul-15 14:33N 48°31' W 122°36'0 0.0
2016-Jul-15 13:33N 48°31' W 122°36'0 0.0
2016-Jul-15 12:33N 48°31' W 122°36'0 0.0
2016-Jul-15 11:33N 48°31' W 122°36'0 0.0
2016-Jul-15 10:33N 48°31' W 122°36'0 0.0
2016-Jul-15 09:33N 48°31' W 122°36'0 0.0
2016-Jul-15 08:33N 48°31' W 122°36'0 0.0
2016-Jul-15 07:33N 48°31' W 122°36'0 0.0
2016-Jul-15 06:33N 48°31' W 122°36'0 0.0
2016-Jul-15 05:33N 48°31' W 122°36'0 0.0
2016-Jul-15 04:33N 48°31' W 122°36'0 0.0
2016-Jul-15 03:33N 48°31' W 122°36'  

Dump ship's entire track history